createdAt,value
2018-06-28T00:00:19.339Z,56.87
2018-06-28T00:01:19.362Z,56.38
2018-06-28T00:02:19.378Z,56.67
2018-06-28T00:03:19.394Z,56.67
2018-06-28T00:04:19.411Z,56.48
2018-06-28T00:05:19.433Z,56.77
2018-06-28T00:06:19.448Z,56.58
2018-06-28T00:07:19.475Z,56.38
2018-06-28T00:08:19.486Z,56.77
2018-06-28T00:09:19.506Z,56.20
2018-06-28T00:10:19.523Z,56.77
2018-06-28T00:11:19.543Z,56.38
2018-06-28T00:12:19.558Z,56.48
2018-06-28T00:13:19.577Z,56.01
2018-06-28T00:14:19.595Z,56.20
2018-06-28T00:15:19.613Z,56.29
2018-06-28T00:16:19.632Z,56.20
2018-06-28T00:17:19.651Z,56.29
2018-06-28T00:18:19.670Z,56.01
2018-06-28T00:19:19.688Z,56.38
2018-06-28T00:20:19.705Z,56.48
2018-06-28T00:21:19.722Z,56.67
2018-06-28T00:22:19.742Z,56.74
2018-06-28T00:23:19.764Z,56.38
2018-06-28T00:24:19.778Z,56.46
2018-06-28T00:25:19.796Z,56.55
2018-06-28T00:26:19.813Z,56.84
2018-06-28T00:27:19.829Z,56.65
2018-06-28T00:28:19.853Z,56.55
2018-06-28T00:29:19.868Z,56.46
2018-06-28T00:30:19.887Z,56.55
2018-06-28T00:31:19.903Z,56.84
2018-06-28T00:32:19.925Z,56.65
2018-06-28T00:33:19.941Z,56.55
2018-06-28T00:34:19.957Z,56.46
2018-06-28T00:35:19.980Z,56.36
2018-06-28T00:36:19.992Z,56.65
2018-06-28T00:37:20.010Z,56.74
2018-06-28T00:38:20.031Z,56.55
2018-06-28T00:39:20.049Z,56.55
2018-06-28T00:40:20.069Z,56.55
2018-06-28T00:41:20.087Z,56.74
2018-06-28T00:42:20.102Z,56.65
2018-06-28T00:43:20.120Z,56.55
2018-06-28T00:44:20.138Z,56.36
2018-06-28T00:45:20.155Z,56.36
2018-06-28T00:46:20.174Z,55.88
2018-06-28T00:47:20.191Z,56.36
2018-06-28T00:48:20.210Z,56.07
2018-06-28T00:49:20.231Z,56.46
2018-06-28T00:50:20.245Z,56.17
2018-06-28T00:51:20.262Z,56.36
2018-06-28T00:52:20.280Z,56.55
2018-06-28T00:53:20.298Z,56.36
2018-06-28T00:54:20.320Z,56.26
2018-06-28T00:55:20.334Z,56.46
2018-06-28T00:56:20.352Z,56.65
2018-06-28T00:57:20.371Z,56.55
2018-06-28T00:58:20.389Z,57.03
2018-06-28T00:59:20.408Z,56.84
2018-06-28T01:00:20.424Z,57.03
2018-06-28T01:01:20.445Z,56.93
2018-06-28T01:02:20.463Z,57.03
2018-06-28T01:03:20.476Z,57.41
2018-06-28T01:04:20.496Z,57.41
2018-06-28T01:05:20.514Z,57.79
2018-06-28T01:06:20.531Z,57.86
2018-06-28T01:07:20.548Z,58.33
2018-06-28T01:08:20.565Z,58.14
2018-06-28T01:09:20.585Z,57.86
2018-06-28T01:10:20.601Z,57.86
2018-06-28T01:11:20.619Z,58.24
2018-06-28T01:12:20.640Z,58.33
2018-06-28T01:13:20.657Z,57.95
2018-06-28T01:14:20.673Z,57.38
2018-06-28T01:15:20.691Z,57.48
2018-06-28T01:16:20.711Z,58.43
2018-06-28T01:17:20.725Z,58.24
2018-06-28T01:18:20.746Z,58.43
2018-06-28T01:19:20.761Z,58.33
2018-06-28T01:20:20.779Z,57.95
2018-06-28T01:21:20.799Z,58.33
2018-06-28T01:22:20.819Z,59.00
2018-06-28T01:23:20.831Z,58.52
2018-06-28T01:24:20.851Z,58.14
2018-06-28T01:25:20.865Z,57.57
2018-06-28T01:26:20.884Z,57.95
2018-06-28T01:27:20.900Z,57.86
2018-06-28T01:28:20.919Z,57.95
2018-06-28T01:29:20.937Z,57.86
2018-06-28T01:30:20.954Z,57.67
2018-06-28T01:31:20.971Z,57.86
2018-06-28T01:32:20.988Z,57.86
2018-06-28T01:33:21.006Z,57.86
2018-06-28T01:34:21.022Z,57.95
2018-06-28T01:35:21.040Z,57.86
2018-06-28T01:36:21.059Z,58.04
2018-06-28T01:37:21.076Z,57.67
2018-06-28T01:38:21.094Z,58.24
2018-06-28T01:39:21.109Z,58.14
2018-06-28T01:40:21.128Z,57.76
2018-06-28T01:41:21.146Z,57.86
2018-06-28T01:42:21.164Z,57.86
2018-06-28T01:43:21.181Z,57.86
2018-06-28T01:44:21.195Z,57.95
2018-06-28T01:45:21.212Z,57.95
2018-06-28T01:46:21.231Z,57.86
2018-06-28T01:47:21.246Z,57.67
2018-06-28T01:48:21.266Z,57.86
2018-06-28T01:49:21.284Z,57.95
2018-06-28T01:50:21.299Z,58.24
2018-06-28T01:51:21.321Z,58.24
2018-06-28T01:52:21.334Z,58.52
2018-06-28T01:53:21.354Z,58.81
2018-06-28T01:54:21.370Z,58.91
2018-06-28T01:55:21.385Z,58.91
2018-06-28T01:56:21.403Z,59.38
2018-06-28T01:57:21.421Z,59.09
2018-06-28T01:58:21.439Z,59.28
2018-06-28T01:59:21.456Z,59.38
2018-06-28T02:00:21.472Z,59.19
2018-06-28T02:01:21.492Z,59.26
2018-06-28T02:02:21.509Z,58.81
2018-06-28T02:03:21.522Z,59.16
2018-06-28T02:04:21.541Z,59.35
2018-06-28T02:05:21.558Z,59.06
2018-06-28T02:06:21.576Z,59.35
2018-06-28T02:07:21.592Z,59.64
2018-06-28T02:08:21.612Z,58.97
2018-06-28T02:09:21.627Z,59.64
2018-06-28T02:10:21.646Z,59.74
2018-06-28T02:11:21.659Z,59.35
2018-06-28T02:12:21.680Z,59.45
2018-06-28T02:13:21.699Z,59.64
2018-06-28T02:14:21.713Z,59.64
2018-06-28T02:15:21.730Z,59.06
2018-06-28T02:16:21.747Z,59.35
2018-06-28T02:17:21.765Z,59.35
2018-06-28T02:18:21.783Z,59.54
2018-06-28T02:19:21.797Z,59.83
2018-06-28T02:20:21.815Z,59.54
2018-06-28T02:21:21.833Z,60.02
2018-06-28T02:22:21.849Z,59.83
2018-06-28T02:23:21.866Z,59.92
2018-06-28T02:24:21.884Z,60.02
2018-06-28T02:25:21.905Z,60.30
2018-06-28T02:26:21.917Z,60.69
2018-06-28T02:27:21.935Z,60.40
2018-06-28T02:28:21.956Z,60.69
2018-06-28T02:29:21.970Z,60.69
2018-06-28T02:30:21.989Z,60.49
2018-06-28T02:31:22.008Z,60.78
2018-06-28T02:32:22.020Z,60.69
2018-06-28T02:33:22.060Z,60.40
2018-06-28T02:34:22.065Z,60.49
2018-06-28T02:35:22.072Z,60.69
2018-06-28T02:36:22.091Z,60.40
2018-06-28T02:37:22.111Z,60.59
2018-06-28T02:38:22.125Z,60.59
2018-06-28T02:39:22.140Z,60.40
2018-06-28T02:40:22.157Z,60.69
2018-06-28T02:41:22.176Z,60.97
2018-06-28T02:42:22.192Z,61.16
2018-06-28T02:43:22.209Z,61.16
2018-06-28T02:44:22.227Z,61.45
2018-06-28T02:45:22.242Z,61.35
2018-06-28T02:46:22.261Z,61.25
2018-06-28T02:47:22.276Z,61.93
2018-06-28T02:48:22.295Z,61.51
2018-06-28T02:49:22.308Z,62.08
2018-06-28T02:50:22.329Z,62.27
2018-06-28T02:51:22.344Z,62.08
2018-06-28T02:52:22.360Z,62.27
2018-06-28T02:53:22.382Z,61.99
2018-06-28T02:54:22.395Z,61.42
2018-06-28T02:55:22.411Z,61.13
2018-06-28T02:56:22.429Z,61.42
2018-06-28T02:57:22.450Z,61.42
2018-06-28T02:58:22.461Z,61.04
2018-06-28T02:59:22.479Z,61.04
2018-06-28T03:00:22.494Z,60.85
2018-06-28T03:01:22.522Z,60.94
2018-06-28T03:02:22.541Z,61.42
2018-06-28T03:03:22.551Z,61.42
2018-06-28T03:04:22.568Z,61.04
2018-06-28T03:05:22.580Z,61.32
2018-06-28T03:06:22.596Z,61.51
2018-06-28T03:07:22.620Z,61.51
2018-06-28T03:08:22.630Z,61.42
2018-06-28T03:09:22.649Z,61.51
2018-06-28T03:10:22.663Z,62.08
2018-06-28T03:11:22.677Z,61.90
2018-06-28T03:12:22.695Z,62.56
2018-06-28T03:13:22.711Z,62.65
2018-06-28T03:14:22.728Z,63.13
2018-06-28T03:15:22.747Z,63.76
2018-06-28T03:16:22.763Z,63.76
2018-06-28T03:17:22.780Z,64.15
2018-06-28T03:18:22.797Z,63.86
2018-06-28T03:19:22.815Z,64.24
2018-06-28T03:20:22.828Z,64.15
2018-06-28T03:21:22.848Z,64.53
2018-06-28T03:22:22.863Z,64.81
2018-06-28T03:23:22.879Z,64.81
2018-06-28T03:24:22.893Z,64.43
2018-06-28T03:25:22.910Z,64.43
2018-06-28T03:26:22.926Z,64.15
2018-06-28T03:27:22.943Z,64.15
2018-06-28T03:28:22.960Z,64.62
2018-06-28T03:29:22.975Z,65.00
2018-06-28T03:30:22.991Z,64.53
2018-06-28T03:31:23.007Z,64.62
2018-06-28T03:32:23.022Z,64.72
2018-06-28T03:33:23.042Z,64.81
2018-06-28T03:34:23.058Z,64.53
2018-06-28T03:35:23.073Z,65.00
2018-06-28T03:36:23.089Z,65.00
2018-06-28T03:37:23.104Z,64.53
2018-06-28T03:38:23.122Z,64.62
2018-06-28T03:39:23.135Z,64.62
2018-06-28T03:40:23.151Z,64.24
2018-06-28T03:41:23.168Z,64.81
2018-06-28T03:42:23.184Z,64.15
2018-06-28T03:43:23.202Z,64.24
2018-06-28T03:44:23.216Z,63.96
2018-06-28T03:45:23.233Z,63.86
2018-06-28T03:46:23.247Z,63.96
2018-06-28T03:47:23.265Z,63.96
2018-06-28T03:48:23.280Z,63.96
2018-06-28T03:49:23.297Z,64.53
2018-06-28T03:50:23.316Z,64.15
2018-06-28T03:51:23.327Z,64.15
2018-06-28T03:52:23.344Z,64.08
2018-06-28T03:53:23.361Z,64.43
2018-06-28T03:54:23.379Z,63.89
2018-06-28T03:55:23.400Z,64.15
2018-06-28T03:56:23.410Z,64.24
2018-06-28T03:57:23.429Z,63.99
2018-06-28T03:58:23.442Z,63.96
2018-06-28T03:59:23.455Z,63.89
2018-06-28T04:00:23.474Z,64.15
2018-06-28T04:01:23.488Z,63.96
2018-06-28T04:02:23.508Z,63.51
2018-06-28T04:03:23.522Z,63.89
2018-06-28T04:04:23.539Z,63.70
2018-06-28T04:05:23.554Z,63.80
2018-06-28T04:06:23.571Z,63.20
2018-06-28T04:07:23.588Z,63.23
2018-06-28T04:08:23.604Z,63.32
2018-06-28T04:09:23.623Z,63.42
2018-06-28T04:10:23.638Z,63.10
2018-06-28T04:11:23.653Z,63.70
2018-06-28T04:12:23.670Z,63.23
2018-06-28T04:13:23.685Z,63.29
2018-06-28T04:14:23.701Z,63.51
2018-06-28T04:15:23.717Z,63.67
2018-06-28T04:16:23.732Z,63.80
2018-06-28T04:17:23.749Z,63.13
2018-06-28T04:18:23.769Z,63.23
2018-06-28T04:19:23.781Z,63.99
2018-06-28T04:20:23.799Z,63.04
2018-06-28T04:21:23.815Z,63.04
2018-06-28T04:22:23.832Z,62.85
2018-06-28T04:23:23.845Z,63.32
2018-06-28T04:24:23.862Z,63.04
2018-06-28T04:25:23.880Z,63.70
2018-06-28T04:26:23.911Z,63.60
2018-06-28T04:27:23.984Z,63.70
2018-06-28T04:28:23.928Z,64.08
2018-06-28T04:29:23.948Z,64.08
2018-06-28T04:30:23.961Z,64.28
2018-06-28T04:31:23.978Z,65.03
2018-06-28T04:32:23.993Z,65.00
2018-06-28T04:33:24.012Z,65.48
2018-06-28T04:34:24.033Z,65.19
2018-06-28T04:35:24.043Z,65.19
2018-06-28T04:36:24.058Z,65.00
2018-06-28T04:37:24.075Z,64.94
2018-06-28T04:38:24.093Z,65.10
2018-06-28T04:39:24.107Z,65.00
2018-06-28T04:40:24.129Z,65.58
2018-06-28T04:41:24.142Z,65.48
2018-06-28T04:42:24.160Z,65.38
2018-06-28T04:43:24.173Z,65.48
2018-06-28T04:44:24.188Z,65.58
2018-06-28T04:45:24.205Z,65.03
2018-06-28T04:46:24.223Z,65.42
2018-06-28T04:47:24.243Z,65.42
2018-06-28T04:48:24.254Z,65.51
2018-06-28T04:49:24.272Z,65.42
2018-06-28T04:50:24.286Z,65.51
2018-06-28T04:51:24.302Z,65.99
2018-06-28T04:52:24.320Z,66.08
2018-06-28T04:53:24.337Z,65.23
2018-06-28T04:54:24.351Z,66.08
2018-06-28T04:55:24.367Z,65.89
2018-06-28T04:56:24.385Z,65.77
2018-06-28T04:57:24.400Z,65.67
2018-06-28T04:58:24.420Z,65.86
2018-06-28T04:59:24.433Z,66.05
2018-06-28T05:00:24.451Z,66.46
2018-06-28T05:01:24.535Z,66.81
2018-06-28T05:02:24.482Z,66.72
2018-06-28T05:03:24.499Z,66.43
2018-06-28T05:04:24.514Z,66.62
2018-06-28T05:05:24.530Z,66.53
2018-06-28T05:06:24.546Z,66.62
2018-06-28T05:07:24.562Z,67.00
2018-06-28T05:08:24.579Z,66.94
2018-06-28T05:09:24.598Z,66.43
2018-06-28T05:10:24.611Z,66.56
2018-06-28T05:11:24.627Z,66.14
2018-06-28T05:12:24.645Z,65.51
2018-06-28T05:13:24.660Z,65.38
2018-06-28T05:14:24.841Z,65.51
2018-06-28T05:15:24.693Z,65.51
2018-06-28T05:16:24.713Z,65.48
2018-06-28T05:17:24.722Z,65.70
2018-06-28T05:18:24.741Z,65.03
2018-06-28T05:19:24.760Z,65.89
2018-06-28T05:20:24.772Z,65.70
2018-06-28T05:21:24.791Z,65.80
2018-06-28T05:22:24.805Z,66.08
2018-06-28T05:23:24.895Z,66.08
2018-06-28T05:24:24.837Z,65.61
2018-06-28T05:25:24.853Z,65.51
2018-06-28T05:26:24.869Z,65.51
2018-06-28T05:27:24.884Z,65.23
2018-06-28T05:28:24.902Z,65.70
2018-06-28T05:29:25.084Z,65.51
2018-06-28T05:30:24.936Z,65.51
2018-06-28T05:31:24.952Z,65.03
2018-06-28T05:32:24.966Z,65.23
2018-06-28T05:33:24.985Z,64.75
2018-06-28T05:34:25.003Z,63.99
2018-06-28T05:35:25.017Z,63.99
2018-06-28T05:36:25.032Z,64.08
2018-06-28T05:37:25.048Z,64.08
2018-06-28T05:38:25.067Z,63.70
2018-06-28T05:39:25.082Z,64.08
2018-06-28T05:40:25.102Z,64.50
2018-06-28T05:41:25.115Z,64.37
2018-06-28T05:42:25.131Z,64.18
2018-06-28T05:43:25.145Z,64.12
2018-06-28T05:44:25.169Z,63.83
2018-06-28T05:45:25.179Z,63.35
2018-06-28T05:46:25.196Z,63.73
2018-06-28T05:47:25.211Z,63.07
2018-06-28T05:48:25.229Z,62.68
2018-06-28T05:49:25.244Z,62.49
2018-06-28T05:50:25.262Z,62.59
2018-06-28T05:51:25.279Z,63.54
2018-06-28T05:52:25.293Z,63.73
2018-06-28T05:53:25.310Z,63.92
2018-06-28T05:54:25.360Z,64.40
2018-06-28T05:55:25.342Z,64.31
2018-06-28T05:56:25.359Z,64.78
2018-06-28T05:57:25.379Z,64.50
2018-06-28T05:58:25.393Z,63.35
2018-06-28T05:59:25.411Z,63.83
2018-06-28T06:00:25.427Z,64.12
2018-06-28T06:01:25.492Z,63.83
2018-06-28T06:02:25.460Z,64.02
2018-06-28T06:03:25.475Z,63.35
2018-06-28T06:04:25.494Z,64.31
2018-06-28T06:05:25.512Z,64.97
2018-06-28T06:06:25.527Z,64.31
2018-06-28T06:07:25.544Z,63.73
2018-06-28T06:08:25.560Z,63.26
2018-06-28T06:09:25.575Z,62.59
2018-06-28T06:10:25.607Z,62.30
2018-06-28T06:11:25.609Z,61.73
2018-06-28T06:12:25.625Z,61.64
2018-06-28T06:13:25.644Z,63.07
2018-06-28T06:14:25.665Z,65.64
2018-06-28T06:15:25.677Z,64.78
2018-06-28T06:16:25.693Z,65.36
2018-06-28T06:17:25.710Z,62.78
2018-06-28T06:18:25.728Z,63.73
2018-06-28T06:19:25.742Z,63.26
2018-06-28T06:20:26.046Z,64.02
2018-06-28T06:21:25.776Z,63.73
2018-06-28T06:22:25.794Z,64.40
2018-06-28T06:23:25.819Z,65.83
2018-06-28T06:24:25.832Z,66.11
2018-06-28T06:25:25.842Z,64.02
2018-06-28T06:26:25.860Z,66.44
2018-06-28T06:27:25.881Z,67.26
2018-06-28T06:28:25.890Z,65.55
2018-06-28T06:29:26.007Z,64.81
2018-06-28T06:30:25.927Z,63.45
2018-06-28T06:31:25.941Z,63.57
2018-06-28T06:32:25.957Z,63.29
2018-06-28T06:33:25.973Z,63.10
2018-06-28T06:34:25.991Z,63.86
2018-06-28T06:35:26.007Z,63.57
2018-06-28T06:36:26.040Z,64.05
2018-06-28T06:37:26.040Z,63.48
2018-06-28T06:38:26.057Z,61.48
2018-06-28T06:39:26.074Z,62.24
2018-06-28T06:40:26.090Z,62.91
2018-06-28T06:41:26.106Z,63.67
2018-06-28T06:42:26.123Z,62.72
2018-06-28T06:43:26.139Z,61.38
2018-06-28T06:44:26.158Z,62.24
2018-06-28T06:45:26.172Z,61.96
2018-06-28T06:46:26.191Z,62.27
2018-06-28T06:47:26.204Z,61.76
2018-06-28T06:48:26.222Z,62.84
2018-06-28T06:49:26.237Z,64.18
2018-06-28T06:50:26.256Z,61.13
2018-06-28T06:51:26.271Z,60.94
2018-06-28T06:52:26.285Z,61.51
2018-06-28T06:53:26.303Z,62.18
2018-06-28T06:54:26.321Z,63.39
2018-06-28T06:55:26.336Z,65.70
2018-06-28T06:56:26.352Z,65.52
2018-06-28T06:57:26.369Z,63.32
2018-06-28T06:58:26.386Z,62.52
2018-06-28T06:59:26.405Z,62.81
2018-06-28T07:00:26.419Z,64.75
2018-06-28T07:01:26.435Z,65.89
2018-06-28T07:02:26.452Z,63.60
2018-06-28T07:03:26.491Z,61.29
2018-06-28T07:04:26.545Z,61.96
2018-06-28T07:05:26.503Z,63.39
2018-06-28T07:06:26.519Z,62.34
2018-06-28T07:07:26.538Z,61.60
2018-06-28T07:08:26.551Z,62.84
2018-06-28T07:09:26.569Z,63.23
2018-06-28T07:10:26.814Z,62.94
2018-06-28T07:11:26.599Z,61.51
2018-06-28T07:12:26.625Z,60.65
2018-06-28T07:13:26.634Z,62.27
2018-06-28T07:14:26.650Z,61.32
2018-06-28T07:15:26.665Z,61.22
2018-06-28T07:16:26.681Z,63.32
2018-06-28T07:17:26.700Z,61.80
2018-06-28T07:18:26.718Z,62.27
2018-06-28T07:19:26.733Z,62.65
2018-06-28T07:20:26.751Z,61.70
2018-06-28T07:21:26.766Z,61.80
2018-06-28T07:22:26.783Z,61.51
2018-06-28T07:23:26.798Z,62.56
2018-06-28T07:24:26.814Z,61.41
2018-06-28T07:25:26.833Z,61.51
2018-06-28T07:26:26.852Z,61.70
2018-06-28T07:27:26.864Z,61.80
2018-06-28T07:28:26.923Z,60.65
2018-06-28T07:29:26.902Z,61.51
2018-06-28T07:30:26.916Z,64.21
2018-06-28T07:31:26.931Z,63.83
2018-06-28T07:32:27.001Z,62.88
2018-06-28T07:33:26.970Z,62.88
2018-06-28T07:34:26.984Z,62.30
2018-06-28T07:35:26.997Z,60.97
2018-06-28T07:36:27.015Z,60.78
2018-06-28T07:37:27.032Z,61.16
2018-06-28T07:38:27.049Z,60.49
2018-06-28T07:39:27.066Z,60.30
2018-06-28T07:40:27.083Z,61.66
2018-06-28T07:41:27.100Z,61.10
2018-06-28T07:42:27.182Z,59.09
2018-06-28T07:43:27.133Z,59.38
2018-06-28T07:44:27.186Z,61.00
2018-06-28T07:45:27.167Z,62.34
2018-06-28T07:46:27.184Z,62.71
2018-06-28T07:47:27.201Z,66.15
2018-06-28T07:48:27.277Z,62.43
2018-06-28T07:49:27.238Z,57.68
2018-06-28T07:50:27.256Z,58.07
2018-06-28T07:51:27.379Z,59.47
2018-06-28T07:52:27.288Z,59.09
2018-06-28T07:53:27.305Z,61.66
2018-06-28T07:54:27.320Z,59.31
2018-06-28T07:55:27.385Z,59.69
2018-06-28T07:56:27.358Z,58.26
2018-06-28T07:57:27.373Z,57.11
2018-06-28T07:58:27.390Z,59.34
2018-06-28T07:59:27.406Z,55.52
2018-06-28T08:00:27.426Z,54.72
2018-06-28T08:01:27.442Z,55.77
2018-06-28T08:02:27.460Z,56.35
2018-06-28T08:03:27.480Z,55.96
2018-06-28T08:04:27.494Z,56.45
2018-06-28T08:05:27.511Z,57.21
2018-06-28T08:06:27.530Z,55.49
2018-06-28T08:07:27.545Z,59.34
2018-06-28T08:08:27.563Z,59.15
2018-06-28T08:09:27.583Z,58.12
2018-06-28T08:10:27.600Z,53.13
2018-06-28T08:11:27.615Z,54.06
2018-06-28T08:12:27.631Z,55.58
2018-06-28T08:13:27.650Z,57.04
2018-06-28T08:14:27.676Z,55.80
2018-06-28T08:15:27.685Z,57.62
2018-06-28T08:16:27.702Z,58.76
2018-06-28T08:17:27.721Z,55.71
2018-06-28T08:18:27.737Z,53.80
2018-06-28T08:19:27.755Z,53.13
2018-06-28T08:20:27.776Z,52.24
2018-06-28T08:21:27.845Z,53.39
2018-06-28T08:22:27.807Z,54.15
2018-06-28T08:23:27.826Z,54.06
2018-06-28T08:24:27.845Z,55.96
2018-06-28T08:25:27.863Z,54.91
2018-06-28T08:26:27.881Z,54.53
2018-06-28T08:27:27.896Z,53.00
2018-06-28T08:28:27.918Z,52.72
2018-06-28T08:29:27.931Z,55.23
2018-06-28T08:30:27.951Z,56.09
2018-06-28T08:31:27.967Z,52.65
2018-06-28T08:32:27.985Z,51.57
2018-06-28T08:33:28.003Z,54.37
2018-06-28T08:34:28.022Z,53.51
2018-06-28T08:35:28.045Z,52.84
2018-06-28T08:36:28.060Z,52.84
2018-06-28T08:37:28.075Z,51.31
2018-06-28T08:38:28.093Z,50.81
2018-06-28T08:39:28.113Z,55.80
2018-06-28T08:40:28.129Z,58.58
2018-06-28T08:41:28.146Z,52.67
2018-06-28T08:42:28.167Z,51.53
2018-06-28T08:43:28.183Z,48.95
2018-06-28T08:44:28.200Z,49.59
2018-06-28T08:45:28.218Z,52.77
2018-06-28T08:46:28.237Z,50.09
2018-06-28T08:47:28.255Z,50.67
2018-06-28T08:48:28.271Z,51.72
2018-06-28T08:49:28.292Z,51.84
2018-06-28T08:50:28.308Z,49.64
2018-06-28T08:51:28.325Z,47.34
2018-06-28T08:52:28.344Z,47.99
2018-06-28T08:53:28.364Z,48.38
2018-06-28T08:54:28.380Z,48.95
2018-06-28T08:55:28.406Z,47.80
2018-06-28T08:56:28.416Z,47.99
2018-06-28T08:57:28.434Z,45.67
2018-06-28T08:58:28.452Z,45.58
2018-06-28T08:59:28.472Z,47.20
2018-06-28T09:00:28.489Z,49.04
2018-06-28T09:01:28.507Z,47.03
2018-06-28T09:02:28.528Z,47.13
2018-06-28T09:03:28.542Z,47.71
2018-06-28T09:04:28.561Z,47.23
2018-06-28T09:05:28.580Z,48.30
2018-06-28T09:06:28.597Z,45.98
2018-06-28T09:07:28.614Z,44.84
2018-06-28T09:08:28.633Z,45.98
2018-06-28T09:09:28.652Z,46.94
2018-06-28T09:10:28.673Z,45.98
2018-06-28T09:11:28.690Z,44.62
2018-06-28T09:12:28.706Z,46.37
2018-06-28T09:13:28.724Z,44.55
2018-06-28T09:14:28.742Z,45.31
2018-06-28T09:15:28.762Z,45.60
2018-06-28T09:16:28.779Z,46.20
2018-06-28T09:17:28.800Z,48.30
2018-06-28T09:18:28.816Z,47.37
2018-06-28T09:19:28.834Z,44.98
2018-06-28T09:20:28.855Z,43.33
2018-06-28T09:21:28.873Z,43.14
2018-06-28T09:22:28.928Z,46.03
2018-06-28T09:23:28.909Z,45.45
2018-06-28T09:24:28.927Z,44.88
2018-06-28T09:25:28.946Z,43.35
2018-06-28T09:26:28.971Z,44.12
2018-06-28T09:27:28.983Z,42.18
2018-06-28T09:28:29.002Z,43.43
2018-06-28T09:29:29.021Z,44.02
2018-06-28T09:30:29.042Z,43.73
2018-06-28T09:31:29.055Z,44.50
2018-06-28T09:32:29.079Z,42.20
2018-06-28T09:33:29.095Z,42.49
2018-06-28T09:34:29.114Z,46.91
2018-06-28T09:35:29.134Z,42.11
2018-06-28T09:36:29.152Z,41.80
2018-06-28T09:37:29.169Z,42.01
2018-06-28T09:38:29.189Z,42.56
2018-06-28T09:39:29.208Z,42.66
2018-06-28T09:40:29.227Z,43.35
2018-06-28T09:41:29.247Z,46.31
2018-06-28T09:42:29.265Z,44.90
2018-06-28T09:43:29.284Z,43.76
2018-06-28T09:44:29.306Z,45.09
2018-06-28T09:45:29.323Z,46.08
2018-06-28T09:46:29.341Z,42.63
2018-06-28T09:47:29.360Z,41.36
2018-06-28T09:48:29.379Z,42.32
2018-06-28T09:49:29.400Z,40.67
2018-06-28T09:50:29.418Z,42.30
2018-06-28T09:51:29.439Z,42.01
2018-06-28T09:52:29.457Z,43.35
2018-06-28T09:53:29.476Z,42.03
2018-06-28T09:54:29.497Z,42.32
2018-06-28T09:55:29.512Z,45.48
2018-06-28T09:56:29.533Z,43.49
2018-06-28T09:57:29.553Z,43.77
2018-06-28T09:58:29.573Z,44.47
2018-06-28T09:59:29.596Z,43.13
2018-06-28T10:00:29.720Z,41.11
2018-06-28T10:01:29.630Z,41.40
2018-06-28T10:02:29.650Z,43.41
2018-06-28T10:03:29.669Z,43.32
2018-06-28T10:04:29.691Z,41.60
2018-06-28T10:05:29.711Z,42.82
2018-06-28T10:06:29.731Z,49.16
2018-06-28T10:07:29.749Z,45.64
2018-06-28T10:08:29.768Z,41.50
2018-06-28T10:09:29.791Z,42.17
2018-06-28T10:10:29.808Z,43.80
2018-06-28T10:11:29.830Z,41.97
2018-06-28T10:12:29.851Z,41.19
2018-06-28T10:13:29.870Z,44.64
2018-06-28T10:14:29.891Z,44.95
2018-06-28T10:15:29.910Z,45.04
2018-06-28T10:16:29.929Z,46.12
2018-06-28T10:17:29.951Z,46.34
2018-06-28T10:18:29.970Z,42.79
2018-06-28T10:19:29.991Z,40.39
2018-06-28T10:20:30.010Z,42.30
2018-06-28T10:21:30.030Z,40.84
2018-06-28T10:22:30.053Z,41.42
2018-06-28T10:23:30.071Z,41.52
2018-06-28T10:24:30.104Z,41.21
2018-06-28T10:25:30.113Z,41.11
2018-06-28T10:26:30.137Z,46.98
2018-06-28T10:27:30.153Z,44.70
2018-06-28T10:28:30.175Z,43.55
2018-06-28T10:29:30.194Z,40.27
2018-06-28T10:30:30.214Z,41.61
2018-06-28T10:31:30.235Z,42.60
2018-06-28T10:32:30.255Z,39.14
2018-06-28T10:33:30.277Z,39.81
2018-06-28T10:34:30.298Z,42.52
2018-06-28T10:35:30.319Z,37.32
2018-06-28T10:36:30.341Z,39.16
2018-06-28T10:37:30.360Z,45.01
2018-06-28T10:38:30.380Z,39.45
2018-06-28T10:39:30.405Z,40.12
2018-06-28T10:40:30.422Z,41.46
2018-06-28T10:41:30.446Z,40.60
2018-06-28T10:42:30.464Z,38.68
2018-06-28T10:43:30.485Z,38.29
2018-06-28T10:44:30.507Z,39.16
2018-06-28T10:45:30.528Z,40.58
2018-06-28T10:46:30.549Z,39.98
2018-06-28T10:47:30.599Z,46.05
2018-06-28T10:48:30.591Z,43.67
2018-06-28T10:49:30.614Z,42.35
2018-06-28T10:50:30.723Z,40.23
2018-06-28T10:51:30.657Z,38.87
2018-06-28T10:52:30.675Z,41.66
2018-06-28T10:53:30.696Z,41.08
2018-06-28T10:54:30.719Z,37.62
2018-06-28T10:55:30.739Z,39.73
2018-06-28T10:56:30.767Z,40.67
2018-06-28T10:57:30.782Z,40.37
2018-06-28T10:58:30.803Z,40.66
2018-06-28T10:59:30.867Z,41.33
2018-06-28T11:00:30.843Z,41.13
2018-06-28T11:01:30.866Z,40.75
2018-06-28T11:02:30.888Z,40.73
2018-06-28T11:03:30.910Z,41.80
2018-06-28T11:04:30.930Z,40.66
2018-06-28T11:05:30.950Z,41.33
2018-06-28T11:06:30.971Z,42.02
2018-06-28T11:07:30.993Z,42.33
2018-06-28T11:08:31.013Z,40.41
2018-06-28T11:09:31.033Z,44.27
2018-06-28T11:10:31.057Z,40.91
2018-06-28T11:11:31.076Z,38.89
2018-06-28T11:12:31.099Z,38.10
2018-06-28T11:13:31.118Z,38.29
2018-06-28T11:14:31.138Z,39.26
2018-06-28T11:15:31.160Z,42.16
2018-06-28T11:16:31.230Z,38.68
2018-06-28T11:17:31.201Z,39.66
2018-06-28T11:18:31.293Z,38.20
2018-06-28T11:19:31.244Z,38.78
2018-06-28T11:20:31.266Z,37.40
2018-06-28T11:21:31.285Z,40.67
2018-06-28T11:22:31.307Z,40.89
2018-06-28T11:23:31.331Z,39.06
2018-06-28T11:24:31.349Z,39.54
2018-06-28T11:25:31.372Z,40.43
2018-06-28T11:26:31.399Z,38.79
2018-06-28T11:27:31.414Z,39.47
2018-06-28T11:28:31.438Z,39.68
2018-06-28T11:29:31.457Z,39.29
2018-06-28T11:30:31.476Z,37.85
2018-06-28T11:31:31.498Z,38.34
2018-06-28T11:32:31.521Z,39.70
2018-06-28T11:33:31.542Z,39.33
2018-06-28T11:34:31.565Z,36.07
2018-06-28T11:35:31.584Z,36.51
2018-06-28T11:36:31.607Z,37.66
2018-06-28T11:37:31.629Z,37.76
2018-06-28T11:38:31.653Z,38.72
2018-06-28T11:39:31.670Z,36.97
2018-06-28T11:40:31.695Z,38.51
2018-06-28T11:41:31.714Z,38.41
2018-06-28T11:42:31.737Z,38.32
2018-06-28T11:43:31.757Z,40.45
2018-06-28T11:44:31.779Z,38.84
2018-06-28T11:45:31.804Z,36.62
2018-06-28T11:46:31.825Z,35.47
2018-06-28T11:47:31.845Z,36.91
2018-06-28T11:48:31.867Z,36.03
2018-06-28T11:49:31.889Z,37.66
2018-06-28T11:50:31.919Z,36.60
2018-06-28T11:51:31.931Z,38.84
2018-06-28T11:52:31.956Z,36.45
2018-06-28T11:53:31.976Z,35.68
2018-06-28T11:54:32.003Z,34.05
2018-06-28T11:55:32.023Z,35.68
2018-06-28T11:56:32.046Z,35.58
2018-06-28T11:57:32.070Z,34.92
2018-06-28T11:58:32.090Z,34.35
2018-06-28T11:59:32.111Z,35.02
2018-06-28T12:00:32.132Z,36.19
2018-06-28T12:01:32.159Z,34.06
2018-06-28T12:02:32.181Z,35.14
2018-06-28T12:03:32.200Z,34.38
2018-06-28T12:04:32.223Z,32.73
2018-06-28T12:05:32.300Z,32.33
2018-06-28T12:06:32.271Z,32.71
2018-06-28T12:07:32.328Z,32.70
2018-06-28T12:08:32.314Z,35.22
2018-06-28T12:09:32.341Z,36.49
2018-06-28T12:10:32.361Z,34.37
2018-06-28T12:11:32.382Z,35.06
2018-06-28T12:12:32.408Z,34.09
2018-06-28T12:13:32.429Z,32.92
2018-06-28T12:14:32.453Z,33.40
2018-06-28T12:15:32.476Z,33.48
2018-06-28T12:16:32.501Z,33.10
2018-06-28T12:17:32.524Z,34.06
2018-06-28T12:18:32.549Z,34.33
2018-06-28T12:19:32.569Z,34.81
2018-06-28T12:20:32.592Z,34.05
2018-06-28T12:21:32.618Z,34.05
2018-06-28T12:22:32.640Z,34.89
2018-06-28T12:23:32.664Z,35.08
2018-06-28T12:24:32.687Z,35.66
2018-06-28T12:25:32.709Z,35.87
2018-06-28T12:26:32.736Z,36.53
2018-06-28T12:27:32.758Z,37.79
2018-06-28T12:28:32.780Z,35.50
2018-06-28T12:29:32.805Z,35.39
2018-06-28T12:30:32.827Z,36.07
2018-06-28T12:31:32.848Z,35.70
2018-06-28T12:32:32.872Z,35.70
2018-06-28T12:33:32.897Z,34.33
2018-06-28T12:34:32.920Z,34.91
2018-06-28T12:35:32.942Z,35.49
2018-06-28T12:36:32.967Z,34.23
2018-06-28T12:37:32.989Z,35.58
2018-06-28T12:38:33.015Z,35.18
2018-06-28T12:39:33.035Z,35.38
2018-06-28T12:40:33.063Z,35.68
2018-06-28T12:41:33.088Z,36.97
2018-06-28T12:42:33.108Z,34.48
2018-06-28T12:43:33.126Z,33.61
2018-06-28T12:44:33.152Z,33.03
2018-06-28T12:45:33.175Z,32.75
2018-06-28T12:46:33.282Z,33.59
2018-06-28T12:47:33.219Z,33.10
2018-06-28T12:48:33.241Z,32.81
2018-06-28T12:49:33.265Z,33.95
2018-06-28T12:50:33.289Z,33.58
2018-06-28T12:51:33.312Z,36.18
2018-06-28T12:52:33.335Z,35.25